createdAt,value
2022-11-09T00:00:29.616Z,37.93
2022-11-09T00:03:03.471Z,37.94
2022-11-09T00:06:05.922Z,38.20
2022-11-09T00:08:41.623Z,38.05
2022-11-09T00:11:14.563Z,38.04
2022-11-09T00:13:47.104Z,37.99
2022-11-09T00:16:19.822Z,39.30
2022-11-09T00:19:17.892Z,38.53
2022-11-09T00:22:16.202Z,38.06
2022-11-09T00:24:47.751Z,37.84
2022-11-09T00:27:18.751Z,37.83
2022-11-09T00:29:49.788Z,37.85
2022-11-09T00:32:35.649Z,37.96
2022-11-09T00:35:08.077Z,37.87
2022-11-09T00:37:39.574Z,37.80
2022-11-09T00:40:15.147Z,37.76
2022-11-09T00:42:54.788Z,37.70
2022-11-09T00:45:38.436Z,37.76
2022-11-09T00:48:10.627Z,38.56
2022-11-09T00:50:39.611Z,38.58
2022-11-09T00:53:11.316Z,38.56
2022-11-09T00:55:42.728Z,37.64
2022-11-09T00:58:15.639Z,37.48
2022-11-09T01:00:47.005Z,37.41
2022-11-09T01:03:20.154Z,37.31
2022-11-09T01:05:58.855Z,37.33
2022-11-09T01:08:36.231Z,37.23
2022-11-09T01:11:09.833Z,37.18
2022-11-09T01:13:43.332Z,37.14
2022-11-09T01:16:19.299Z,37.13
2022-11-09T01:19:03.903Z,37.23
2022-11-09T01:21:37.820Z,37.06
2022-11-09T01:24:08.059Z,36.91
2022-11-09T01:26:50.332Z,36.75
2022-11-09T01:29:23.774Z,36.81
2022-11-09T01:32:03.565Z,36.65
2022-11-09T01:34:35.629Z,36.44
2022-11-09T01:37:06.333Z,36.34
2022-11-09T01:39:36.086Z,36.31
2022-11-09T01:42:06.545Z,36.25
2022-11-09T01:44:39.673Z,36.20
2022-11-09T01:47:28.199Z,36.34
2022-11-09T01:50:05.939Z,36.08
2022-11-09T01:52:45.903Z,35.99
2022-11-09T01:55:36.294Z,36.03
2022-11-09T01:58:12.107Z,35.91
2022-11-09T02:00:51.209Z,35.80
2022-11-09T02:03:42.382Z,35.68
2022-11-09T02:06:18.635Z,35.60
2022-11-09T02:09:03.731Z,35.57
2022-11-09T02:11:41.300Z,35.45
2022-11-09T02:14:15.455Z,35.48
2022-11-09T02:16:51.298Z,35.30
2022-11-09T02:19:22.841Z,35.15
2022-11-09T02:22:02.049Z,35.13
2022-11-09T02:24:39.094Z,35.07
2022-11-09T02:27:12.247Z,34.98
2022-11-09T02:29:47.337Z,34.91
2022-11-09T02:32:37.885Z,34.95
2022-11-09T02:35:08.553Z,34.89
2022-11-09T02:37:50.954Z,35.71
2022-11-09T02:40:31.715Z,35.98
2022-11-09T02:43:14.657Z,36.14
2022-11-09T02:45:48.184Z,36.09
2022-11-09T02:48:19.851Z,35.24
2022-11-09T02:50:54.601Z,35.19
2022-11-09T02:53:30.459Z,35.13
2022-11-09T02:56:06.000Z,35.09
2022-11-09T02:58:43.444Z,34.94
2022-11-09T03:01:23.079Z,34.96
2022-11-09T03:04:18.727Z,35.18
2022-11-09T03:07:06.867Z,35.01
2022-11-09T03:09:39.749Z,34.94
2022-11-09T03:12:35.539Z,34.91
2022-11-09T03:15:19.516Z,35.06
2022-11-09T03:18:06.633Z,34.89
2022-11-09T03:20:44.038Z,34.84
2022-11-09T03:23:39.921Z,34.81
2022-11-09T03:26:14.406Z,34.78
2022-11-09T03:28:46.288Z,34.65
2022-11-09T03:31:19.015Z,34.64
2022-11-09T03:34:06.301Z,34.55
2022-11-09T03:36:46.111Z,34.51
2022-11-09T03:39:23.287Z,34.39
2022-11-09T03:42:20.238Z,34.40
2022-11-09T03:45:11.762Z,34.36
2022-11-09T03:48:15.965Z,34.24
2022-11-09T03:50:47.921Z,34.17
2022-11-09T03:53:38.214Z,34.01
2022-11-09T03:56:13.154Z,33.95
2022-11-09T03:58:54.927Z,33.94
2022-11-09T04:02:11.027Z,34.21
2022-11-09T04:05:29.398Z,34.16
2022-11-09T04:08:48.386Z,34.07
2022-11-09T04:12:08.533Z,33.72
2022-11-09T04:15:03.824Z,33.68
2022-11-09T04:21:43.771Z,33.69
2022-11-09T04:24:33.348Z,33.40
2022-11-09T04:27:19.979Z,33.40
2022-11-09T04:34:43.746Z,33.63
2022-11-09T04:37:20.213Z,33.35
2022-11-09T04:41:04.206Z,33.23
2022-11-09T04:43:47.622Z,33.13
2022-11-09T04:46:54.190Z,33.20
2022-11-09T04:50:14.963Z,33.30
2022-11-09T04:52:58.554Z,33.04
2022-11-09T04:55:50.794Z,33.03
2022-11-09T04:58:55.038Z,33.04
2022-11-09T05:06:51.063Z,33.26
2022-11-09T05:11:12.168Z,33.50
2022-11-09T05:14:13.790Z,34.24
2022-11-09T05:16:51.460Z,33.32
2022-11-09T05:19:45.058Z,32.92
2022-11-09T05:26:50.576Z,32.80
2022-11-09T05:29:30.128Z,32.59
2022-11-09T05:32:19.972Z,32.56
2022-11-09T05:35:18.927Z,32.52
2022-11-09T05:37:51.695Z,32.33
2022-11-09T05:40:32.010Z,32.27
2022-11-09T05:43:14.878Z,32.29
2022-11-09T05:45:55.164Z,32.21
2022-11-09T05:48:36.283Z,32.11
2022-11-09T05:51:18.657Z,32.06
2022-11-09T05:54:14.054Z,32.22
2022-11-09T05:56:51.089Z,31.97
2022-11-09T06:02:12.511Z,31.89
2022-11-09T06:04:55.205Z,31.76
2022-11-09T06:11:43.748Z,31.87
2022-11-09T06:14:54.498Z,32.42
2022-11-09T06:27:59.378Z,31.99
2022-11-09T06:30:34.760Z,31.70
2022-11-09T06:33:07.701Z,31.60
2022-11-09T06:35:55.947Z,31.63
2022-11-09T06:38:40.140Z,31.68
2022-11-09T06:44:28.006Z,31.85
2022-11-09T06:47:39.826Z,32.09
2022-11-09T06:50:13.778Z,31.93
2022-11-09T06:52:46.458Z,31.79
2022-11-09T06:55:20.082Z,31.73
2022-11-09T06:57:51.027Z,31.83
2022-11-09T07:01:00.724Z,32.06
2022-11-09T07:03:36.743Z,31.87
2022-11-09T07:06:12.368Z,31.80
2022-11-09T07:08:46.759Z,31.72
2022-11-09T07:11:31.952Z,31.81
2022-11-09T07:14:06.697Z,32.91
2022-11-09T07:16:42.538Z,32.25
2022-11-09T07:19:12.277Z,31.99
2022-11-09T07:21:45.825Z,31.77
2022-11-09T07:24:18.506Z,31.72
2022-11-09T07:26:52.323Z,31.75
2022-11-09T07:29:36.362Z,31.79
2022-11-09T07:32:11.924Z,31.98
2022-11-09T07:34:59.238Z,31.92
2022-11-09T07:37:34.496Z,31.88
2022-11-09T07:41:16.061Z,32.07
2022-11-09T07:43:50.498Z,31.92
2022-11-09T07:46:24.156Z,31.75
2022-11-09T07:49:12.357Z,31.74
2022-11-09T07:52:19.344Z,32.02
2022-11-09T07:55:24.473Z,31.83
2022-11-09T07:59:03.366Z,31.83
2022-11-09T08:01:46.981Z,31.55
2022-11-09T08:04:27.755Z,31.36
2022-11-09T08:07:24.500Z,31.36
2022-11-09T08:10:26.282Z,31.38
2022-11-09T08:13:42.646Z,31.45
2022-11-09T08:17:02.278Z,31.65
2022-11-09T08:20:08.738Z,31.57
2022-11-09T08:23:35.334Z,31.37
2022-11-09T08:26:13.018Z,31.29
2022-11-09T08:28:51.318Z,31.14
2022-11-09T08:31:31.596Z,31.05
2022-11-09T08:34:34.649Z,31.07
2022-11-09T08:37:09.584Z,30.99
2022-11-09T08:39:46.268Z,30.87
2022-11-09T08:42:16.079Z,30.74
2022-11-09T08:49:21.893Z,30.72
2022-11-09T08:55:45.838Z,31.45
2022-11-09T08:58:40.422Z,30.73
2022-11-09T09:01:41.247Z,30.47
2022-11-09T09:09:50.211Z,30.74
2022-11-09T09:17:19.830Z,30.67
2022-11-09T09:21:01.663Z,30.63
2022-11-09T09:24:37.701Z,30.60
2022-11-09T09:30:56.958Z,30.52
2022-11-09T09:33:51.843Z,30.38
2022-11-09T09:41:14.177Z,30.47
2022-11-09T09:44:22.917Z,30.33
2022-11-09T09:47:10.060Z,30.28
2022-11-09T09:50:18.980Z,30.11
2022-11-09T09:53:23.134Z,30.02
2022-11-09T09:56:11.489Z,29.95
2022-11-09T09:59:38.773Z,29.95
2022-11-09T10:02:36.370Z,29.81
2022-11-09T10:05:16.480Z,29.65
2022-11-09T10:08:31.135Z,29.75
2022-11-09T10:11:46.240Z,29.88
2022-11-09T10:14:54.210Z,29.87
2022-11-09T10:18:06.400Z,30.76
2022-11-09T10:21:16.253Z,30.83
2022-11-09T10:25:12.220Z,31.00
2022-11-09T10:28:00.624Z,30.92
2022-11-09T10:31:23.129Z,30.94
2022-11-09T10:34:23.518Z,30.92
2022-11-09T10:37:23.847Z,30.73
2022-11-09T10:40:39.189Z,30.52
2022-11-09T10:47:12.223Z,30.56
2022-11-09T10:50:38.039Z,30.61
2022-11-09T10:53:38.676Z,30.56
2022-11-09T10:57:20.198Z,30.56
2022-11-09T11:00:28.500Z,30.64
2022-11-09T11:03:29.315Z,30.52
2022-11-09T11:06:36.492Z,30.51
2022-11-09T11:09:33.753Z,30.44
2022-11-09T11:12:25.164Z,30.49
2022-11-09T11:16:28.333Z,30.69
2022-11-09T11:24:22.573Z,30.76
2022-11-09T11:27:49.023Z,30.56
2022-11-09T11:31:21.113Z,30.77
2022-11-09T11:34:32.147Z,30.71
2022-11-09T11:38:43.845Z,31.02
2022-11-09T11:42:30.590Z,30.99
2022-11-09T11:46:28.022Z,30.33
2022-11-09T11:54:35.685Z,30.60
2022-11-09T11:58:12.708Z,30.59
2022-11-09T12:05:22.416Z,30.47
2022-11-09T12:13:54.714Z,30.61
2022-11-09T12:17:23.893Z,30.39
2022-11-09T12:20:48.173Z,30.40
2022-11-09T12:24:51.146Z,30.36
2022-11-09T12:33:12.496Z,30.57
2022-11-09T12:41:42.738Z,30.71
2022-11-09T12:44:50.856Z,30.53
2022-11-09T12:48:36.547Z,30.70
2022-11-09T12:52:38.084Z,30.63
2022-11-09T13:05:48.551Z,31.30
2022-11-09T13:09:00.126Z,31.38
2022-11-09T13:11:53.840Z,31.54
2022-11-09T13:14:43.469Z,31.62
2022-11-09T13:17:35.232Z,31.77
2022-11-09T13:21:00.932Z,32.09
2022-11-09T13:24:02.027Z,32.32
2022-11-09T13:26:54.080Z,32.54
2022-11-09T13:29:43.132Z,32.74
2022-11-09T13:32:35.304Z,33.00
2022-11-09T13:35:43.394Z,33.55
2022-11-09T13:39:42.143Z,34.18
2022-11-09T13:42:41.502Z,34.36
2022-11-09T13:46:18.930Z,34.68
2022-11-09T13:49:45.673Z,35.30
2022-11-09T13:53:34.632Z,35.61
2022-11-09T13:56:43.873Z,35.48
2022-11-09T13:59:48.475Z,35.64
2022-11-09T14:03:08.117Z,35.84
2022-11-09T14:06:16.080Z,35.98
2022-11-09T14:09:34.690Z,36.05
2022-11-09T14:13:11.340Z,36.45
2022-11-09T14:16:40.435Z,36.62
2022-11-09T14:20:22.528Z,36.87
2022-11-09T14:23:29.667Z,36.87
2022-11-09T14:26:40.209Z,36.61
2022-11-09T14:29:42.888Z,36.45
2022-11-09T14:32:36.037Z,36.52
2022-11-09T14:35:39.236Z,36.65
2022-11-09T14:39:56.897Z,36.39
2022-11-09T14:48:07.143Z,37.75
2022-11-09T14:51:39.211Z,37.95
2022-11-09T14:55:22.345Z,37.78
2022-11-09T14:58:23.661Z,37.72
2022-11-09T15:01:59.193Z,37.81
2022-11-09T15:05:47.062Z,38.17
2022-11-09T15:09:11.148Z,38.41
2022-11-09T15:12:49.285Z,38.30
2022-11-09T15:16:06.988Z,38.47
2022-11-09T15:20:23.924Z,39.99
2022-11-09T15:27:43.942Z,39.98
2022-11-09T15:30:45.632Z,40.00
2022-11-09T15:34:07.675Z,40.54
2022-11-09T15:37:49.901Z,40.99
2022-11-09T15:41:24.183Z,41.41
2022-11-09T15:44:40.638Z,41.69
2022-11-09T15:47:52.035Z,41.72
2022-11-09T15:51:06.431Z,42.00
2022-11-09T15:54:15.350Z,42.02
2022-11-09T15:57:23.457Z,41.14
2022-11-09T16:00:27.216Z,40.85
2022-11-09T16:03:22.445Z,40.72
2022-11-09T16:06:19.979Z,41.72
2022-11-09T16:09:14.586Z,42.10
2022-11-09T16:12:06.834Z,42.28
2022-11-09T16:15:07.069Z,42.08
2022-11-09T16:18:26.145Z,42.16
2022-11-09T16:21:47.209Z,43.58
2022-11-09T16:24:56.065Z,42.51
2022-11-09T16:27:57.179Z,42.57
2022-11-09T16:31:51.869Z,43.46
2022-11-09T16:35:15.481Z,44.24
2022-11-09T16:38:23.419Z,45.36
2022-11-09T16:45:10.566Z,46.16
2022-11-09T16:48:11.288Z,44.95
2022-11-09T16:51:03.577Z,44.13
2022-11-09T16:53:51.881Z,43.70
2022-11-09T16:56:43.334Z,43.92
2022-11-09T16:59:35.967Z,43.70
2022-11-09T17:02:31.270Z,43.42
2022-11-09T17:05:19.816Z,43.02
2022-11-09T17:08:21.446Z,42.45
2022-11-09T17:11:15.110Z,42.39
2022-11-09T17:14:03.488Z,41.79
2022-11-09T17:21:19.293Z,41.78
2022-11-09T17:24:41.643Z,41.50
2022-11-09T17:28:46.570Z,41.64
2022-11-09T17:37:59.418Z,41.99
2022-11-09T17:42:40.375Z,42.97
2022-11-09T17:47:08.327Z,43.05
2022-11-09T17:50:32.905Z,42.64
2022-11-09T17:53:56.270Z,41.89
2022-11-09T17:57:23.239Z,41.69
2022-11-09T18:00:36.079Z,41.89
2022-11-09T18:03:44.099Z,42.44
2022-11-09T18:06:47.115Z,42.56
2022-11-09T18:09:48.403Z,42.39
2022-11-09T18:12:52.571Z,42.18
2022-11-09T18:15:50.766Z,41.56
2022-11-09T18:18:48.251Z,41.33
2022-11-09T18:22:03.376Z,41.13
2022-11-09T18:25:51.035Z,41.16
2022-11-09T18:28:51.525Z,40.92
2022-11-09T18:31:52.143Z,40.77
2022-11-09T18:34:52.063Z,40.76
2022-11-09T18:37:51.571Z,40.54
2022-11-09T18:41:04.224Z,40.46
2022-11-09T18:45:06.226Z,40.62
2022-11-09T18:48:16.316Z,40.65
2022-11-09T18:55:18.320Z,40.72
2022-11-09T18:58:24.173Z,40.59
2022-11-09T19:01:46.918Z,40.65
2022-11-09T19:05:13.885Z,40.54
2022-11-09T19:12:42.795Z,40.69
2022-11-09T19:16:19.054Z,40.81
2022-11-09T19:19:38.906Z,40.67
2022-11-09T19:22:52.948Z,40.64
2022-11-09T19:35:24.839Z,41.00
2022-11-09T19:38:47.383Z,40.86
2022-11-09T19:41:48.013Z,40.67
2022-11-09T19:45:20.365Z,40.77
2022-11-09T19:48:32.089Z,40.74
2022-11-09T19:51:43.472Z,40.63
2022-11-09T19:54:51.760Z,41.50
2022-11-09T19:57:50.555Z,41.61
2022-11-09T20:01:23.810Z,40.94
2022-11-09T20:04:47.963Z,41.48
2022-11-09T20:12:20.664Z,40.55
2022-11-09T20:16:45.552Z,40.69
2022-11-09T20:19:56.868Z,41.27
2022-11-09T20:26:43.084Z,40.38
2022-11-09T20:29:48.211Z,40.32
2022-11-09T20:33:02.748Z,40.21
2022-11-09T20:36:24.145Z,40.01
2022-11-09T20:39:40.751Z,39.96
2022-11-09T20:42:46.298Z,39.97
2022-11-09T20:45:44.665Z,39.88
2022-11-09T20:48:56.077Z,39.87
2022-11-09T20:52:23.349Z,39.83
2022-11-09T20:55:53.171Z,39.96
2022-11-09T20:59:20.465Z,39.85
2022-11-09T21:02:18.956Z,39.92
2022-11-09T21:05:12.342Z,39.74
2022-11-09T21:08:22.005Z,39.79
2022-11-09T21:11:18.117Z,40.68
2022-11-09T21:14:23.050Z,40.24
2022-11-09T21:17:23.055Z,40.01
2022-11-09T21:20:20.282Z,39.91
2022-11-09T21:23:20.174Z,39.88
2022-11-09T21:26:43.574Z,39.88
2022-11-09T21:30:04.836Z,40.02
2022-11-09T21:33:12.769Z,40.01
2022-11-09T21:36:20.208Z,40.67
2022-11-09T21:39:19.469Z,40.33
2022-11-09T21:42:17.473Z,39.87
2022-11-09T21:45:12.244Z,39.71
2022-11-09T21:48:15.743Z,39.77
2022-11-09T21:51:15.091Z,39.69
2022-11-09T21:54:23.627Z,39.75
2022-11-09T21:57:30.290Z,39.81
2022-11-09T22:00:38.435Z,39.88
2022-11-09T22:03:39.878Z,39.85
2022-11-09T22:06:42.769Z,39.90
2022-11-09T22:10:08.399Z,39.91
2022-11-09T22:13:19.188Z,39.82
2022-11-09T22:16:16.439Z,39.74
2022-11-09T22:19:39.248Z,39.71
2022-11-09T22:22:38.939Z,39.92
2022-11-09T22:25:48.170Z,39.82
2022-11-09T22:29:03.548Z,39.72
2022-11-09T22:32:07.734Z,39.58
2022-11-09T22:35:10.451Z,39.59
2022-11-09T22:38:19.756Z,39.52
2022-11-09T22:41:21.940Z,40.79
2022-11-09T22:44:20.304Z,39.69
2022-11-09T22:47:24.420Z,39.39
2022-11-09T22:50:24.000Z,39.26
2022-11-09T22:53:34.415Z,39.25
2022-11-09T22:56:44.497Z,39.24
2022-11-09T22:59:50.678Z,39.25
2022-11-09T23:02:45.529Z,39.05
2022-11-09T23:05:44.702Z,38.85
2022-11-09T23:08:47.381Z,38.71
2022-11-09T23:11:47.839Z,38.57
2022-11-09T23:15:07.794Z,38.46
2022-11-09T23:18:39.951Z,38.40
2022-11-09T23:21:43.875Z,38.33
2022-11-09T23:25:05.842Z,38.15
2022-11-09T23:28:07.871Z,38.09
2022-11-09T23:31:15.145Z,37.98
2022-11-09T23:34:14.192Z,37.79
2022-11-09T23:37:12.035Z,37.66
2022-11-09T23:40:12.091Z,37.57
2022-11-09T23:43:12.121Z,37.49
2022-11-09T23:46:19.279Z,37.39
2022-11-09T23:49:09.942Z,37.23
2022-11-09T23:52:16.186Z,37.20
2022-11-09T23:55:06.861Z,37.14
2022-11-09T23:58:11.873Z,37.14
